Time;durP1;ratioP1;P1;durP2;ratioP2;P2;SDS_P1;SDS_P2;PMS_P1;PMS_P2;Temp;Humidity;BMP_temperature;BMP_pressure;BME280_temperature;BME280_humidity;BME280_pressure;Samples;Min_cycle;Max_cycle;Signal;HPM_P1;HPM_P2
2023/10/13 00:00:57;;;;;;;8.30;4.10;;;;;;;15.69;81.34;97775.75;10406088;28;20120;-72
2023/10/13 00:06:18;;;;;;;9.25;4.13;;;;;;;15.68;80.93;97771.50;10393236;28;20180;-71
2023/10/13 00:11:44;;;;;;;8.93;3.92;;;;;;;15.57;81.33;97766.72;10391779;28;20188;-71
2023/10/13 00:17:07;;;;;;;10.50;4.35;;;;;;;15.57;81.23;97766.00;10405747;28;20476;-71
2023/10/13 00:22:31;;;;;;;10.38;4.07;;;;;;;15.55;81.72;97763.09;10419912;28;20487;-71
2023/10/13 00:27:52;;;;;;;10.13;4.25;;;;;;;15.55;81.95;97768.72;10419870;28;20064;-71
2023/10/13 00:33:14;;;;;;;8.73;4.00;;;;;;;15.56;82.17;97764.53;10404527;28;20121;-71
2023/10/13 00:38:35;;;;;;;8.05;3.45;;;;;;;15.55;82.05;97761.00;10404440;28;20121;-71
2023/10/13 00:44:06;;;;;;;8.98;3.60;;;;;;;15.53;82.30;97765.78;10404196;28;20076;-71
2023/10/13 00:49:30;;;;;;;7.63;3.85;;;;;;;15.50;82.50;97767.78;10391310;28;20076;-71
2023/10/13 00:54:50;;;;;;;7.22;3.92;;;;;;;15.53;82.47;97774.94;10404192;28;20502;-72
2023/10/13 01:00:25;;;;;;;10.68;4.70;;;;;;;15.56;82.43;97787.03;10375813;28;20121;-72
2023/10/13 01:05:45;;;;;;;;;;;;;;;15.60;82.54;97781.59;10392475;28;20124;-72
2023/10/13 01:11:10;;;;;;;8.35;3.95;;;;;;;15.60;82.72;97796.41;10424317;28;19959;-72
2023/10/13 01:16:31;;;;;;;10.90;4.00;;;;;;;15.62;82.41;97801.41;10397105;28;20069;-73
2023/10/13 01:22:01;;;;;;;8.25;4.10;;;;;;;15.64;82.17;97807.88;10388976;28;20053;-71
2023/10/13 01:27:25;;;;;;;8.40;3.40;;;;;;;15.63;82.34;97786.00;10377936;28;20049;-72
2023/10/13 01:32:46;;;;;;;11.97;4.30;;;;;;;15.67;82.25;97794.63;10402562;28;20492;-71
2023/10/13 01:38:06;;;;;;;9.93;3.85;;;;;;;15.65;82.42;97805.81;10402123;28;20084;-72
2023/10/13 01:43:27;;;;;;;7.90;3.70;;;;;;;15.67;82.39;97800.28;10416855;28;20495;-71
2023/10/13 01:48:48;;;;;;;7.47;3.75;;;;;;;15.69;82.24;97806.72;10416113;28;20167;-71
2023/10/13 01:54:12;;;;;;;7.53;3.28;;;;;;;15.63;82.41;97800.81;10387835;28;20468;-72
2023/10/13 01:59:34;;;;;;;9.48;3.92;;;;;;;15.58;82.58;97806.81;10388567;28;20124;-72
2023/10/13 02:05:02;;;;;;;7.85;4.03;;;;;;;15.57;82.58;97802.56;10387292;28;20084;-71
2023/10/13 02:10:27;;;;;;;7.57;4.13;;;;;;;15.58;82.45;97801.19;10401590;28;20061;-71
2023/10/13 02:15:51;;;;;;;11.85;4.63;;;;;;;15.58;82.50;97806.81;10400721;28;20075;-72
2023/10/13 02:21:12;;;;;;;9.70;4.45;;;;;;;15.52;82.31;97804.44;10400901;28;20058;-71
2023/10/13 02:26:38;;;;;;;8.55;4.45;;;;;;;15.44;82.62;97813.22;10400499;28;20125;-71
2023/10/13 02:32:04;;;;;;;10.60;4.40;;;;;;;15.44;82.62;97815.28;10400276;28;20523;-71
2023/10/13 02:37:27;;;;;;;9.15;3.83;;;;;;;15.50;82.67;97820.50;10401405;28;20061;-71
2023/10/13 02:42:49;;;;;;;11.15;3.85;;;;;;;15.57;82.49;97808.91;10400014;28;20396;-71
2023/10/13 02:48:12;;;;;;;10.05;3.75;;;;;;;15.59;82.55;97805.47;10415031;28;20120;-71
2023/10/13 02:53:34;;;;;;;9.15;4.13;;;;;;;15.44;82.47;97793.53;10400461;28;20458;-71
2023/10/13 02:58:56;;;;;;;9.02;4.10;;;;;;;15.32;82.85;97789.38;10400172;28;20119;-71
2023/10/13 03:04:25;;;;;;;9.47;4.03;;;;;;;15.16;83.23;97784.41;10400319;28;20073;-71
2023/10/13 03:09:52;;;;;;;9.90;3.95;;;;;;;15.08;83.45;97789.63;10374650;28;20536;-71
2023/10/13 03:15:30;;;;;;;11.43;3.80;;;;;;;14.97;83.55;97784.84;10387929;28;20443;-72
2023/10/13 03:20:56;;;;;;;9.65;4.07;;;;;;;14.87;83.72;97789.94;10391840;28;20061;-71
2023/10/13 03:26:19;;;;;;;7.70;3.95;;;;;;;14.77;83.66;97797.84;10394172;28;20072;-71
2023/10/13 03:31:45;;;;;;;9.90;3.63;;;;;;;14.71;84.19;97794.72;10393418;28;20566;-71
2023/10/13 03:37:18;;;;;;;8.13;3.75;;;;;;;14.63;84.14;97797.84;10393473;28;20542;-71
2023/10/13 03:42:40;;;;;;;8.00;4.15;;;;;;;14.58;84.19;97794.09;10407906;28;20068;-70
2023/10/13 03:48:08;;;;;;;8.95;3.92;;;;;;;14.57;84.32;97786.25;10393387;28;20069;-72
2023/10/13 03:53:33;;;;;;;10.10;4.40;;;;;;;14.53;84.46;97781.19;10394217;28;20113;-71
2023/10/13 03:58:57;;;;;;;7.78;3.78;;;;;;;14.51;84.90;97783.16;10420095;28;20117;-71
2023/10/13 04:15:43;;;;;;;7.15;4.07;;;;;;;14.44;84.91;97789.75;10407827;28;20041;-72
2023/10/13 04:21:18;;;;;;;10.32;4.85;;;;;;;14.48;85.05;97779.53;10419789;28;20073;-71
2023/10/13 04:26:42;;;;;;;10.30;4.55;;;;;;;14.59;85.02;97780.78;10406537;28;20069;-71
2023/10/13 04:32:13;;;;;;;9.73;4.72;;;;;;;14.75;85.10;97769.63;10419038;28;20488;-71
2023/10/13 04:37:50;;;;;;;11.10;4.88;;;;;;;14.92;85.41;97771.19;10419234;28;20073;-72
2023/10/13 04:48:50;;;;;;;9.35;4.43;;;;;;;14.97;85.29;97756.75;10406475;28;20440;-72
2023/10/13 04:54:12;;;;;;;9.80;4.63;;;;;;;14.91;85.35;97758.50;10403759;28;20124;-71
2023/10/13 04:59:37;;;;;;;10.90;4.70;;;;;;;14.95;85.94;97756.63;10404036;28;20042;-71
2023/10/13 05:44:33;;;;;;;7.90;3.92;;;;;;;16.14;84.35;97772.25;10403106;28;20092;-72
2023/10/13 05:50:04;;;;;;;;;;;;;;;16.29;83.76;97779.97;10417148;28;20463;-71
2023/10/13 06:29:22;;;;;;;5.50;3.25;;;;;;;16.62;82.25;97798.34;10403737;28;20483;-71
2023/10/13 06:34:47;;;;;;;7.53;3.97;;;;;;;16.63;81.43;97802.63;10400553;28;20069;-71
2023/10/13 06:45:56;;;;;;;10.20;3.63;;;;;;;16.60;81.44;97804.63;10390197;28;20073;-71
2023/10/13 06:51:18;;;;;;;9.77;3.80;;;;;;;16.63;81.14;97818.78;10388267;28;20045;-72
2023/10/13 06:56:41;;;;;;;9.38;3.28;;;;;;;16.64;81.64;97818.16;10391807;28;20507;-71
2023/10/13 07:02:05;;;;;;;11.23;4.05;;;;;;;16.74;81.19;97815.09;10411835;28;20095;-73
2023/10/13 07:07:47;;;;;;;6.63;3.13;;;;;;;16.84;81.37;97821.19;10403906;28;20079;-71
2023/10/13 07:13:08;;;;;;;7.45;2.97;;;;;;;16.86;81.00;97824.09;10407917;28;20560;-73
2023/10/13 07:18:35;;;;;;;5.75;2.95;;;;;;;16.96;80.60;97826.63;10422481;28;20503;-71
2023/10/13 07:24:08;;;;;;;9.48;3.70;;;;;;;17.14;80.56;97824.59;10407075;28;20096;-71
2023/10/13 07:29:30;;;;;;;6.77;2.63;;;;;;;17.21;80.17;97811.50;10421867;28;20072;-71
2023/10/13 07:34:51;;;;;;;9.75;3.08;;;;;;;17.45;80.32;97816.03;10406724;28;20548;-71
2023/10/13 07:45:45;;;;;;;7.90;2.90;;;;;;;18.03;78.39;97811.34;10421025;28;20125;-71
2023/10/13 07:51:27;;;;;;;6.15;2.75;;;;;;;18.27;77.87;97810.88;10392440;28;20072;-71
2023/10/13 07:56:48;;;;;;;7.53;2.38;;;;;;;18.59;77.11;97809.25;10397425;28;20050;-70
2023/10/13 08:02:12;;;;;;;7.88;2.40;;;;;;;18.85;76.72;97806.69;10405849;28;20462;-70
2023/10/13 08:07:34;;;;;;;6.07;2.33;;;;;;;19.13;74.16;97794.94;10419025;28;20157;-70
2023/10/13 08:12:57;;;;;;;9.88;2.65;;;;;;;19.24;73.19;97784.69;10419276;28;20080;-70
2023/10/13 08:18:30;;;;;;;9.63;2.65;;;;;;;19.11;72.56;97792.03;10405429;28;20045;-71
2023/10/13 08:51:10;;;;;;;8.98;2.40;;;;;;;20.71;64.72;97785.09;10418493;28;20067;-71
2023/10/13 08:56:34;;;;;;;6.20;2.42;;;;;;;20.95;64.29;97778.66;10391425;28;20045;-70
2023/10/13 09:02:15;;;;;;;6.70;2.38;;;;;;;20.83;63.54;97782.59;10404000;28;20124;-69
2023/10/13 09:07:47;;;;;;;7.55;2.55;;;;;;;20.61;63.56;97781.97;10405615;28;20058;-71
2023/10/13 09:13:23;;;;;;;3.45;1.75;;;;;;;20.58;63.69;97783.31;10405621;28;20049;-70
2023/10/13 09:18:46;;;;;;;5.72;2.58;;;;;;;20.86;64.08;97775.59;10402335;28;20045;-70
2023/10/13 09:24:51;;;;;;;8.57;2.63;;;;;;;21.32;63.88;97778.22;10417285;28;20136;-70
2023/10/13 09:35:39;;;;;;;8.13;2.70;;;;;;;23.43;57.67;97779.28;10404428;28;20065;-70
2023/10/13 09:41:17;;;;;;;7.37;2.97;;;;;;;23.43;55.90;97770.00;10402300;28;20432;-70
2023/10/13 09:46:41;;;;;;;7.78;2.50;;;;;;;22.44;56.31;97766.69;10378567;28;20126;-70
2023/10/13 09:52:02;;;;;;;8.27;2.33;;;;;;;22.24;57.48;97769.09;10388130;28;20064;-70
2023/10/13 09:57:25;;;;;;;9.57;2.60;;;;;;;22.04;57.91;97760.81;10388222;28;20126;-71
2023/10/13 10:02:45;;;;;;;9.45;2.60;;;;;;;21.91;58.02;97762.66;10387290;28;20363;-70
2023/10/13 10:08:09;;;;;;;10.13;2.88;;;;;;;21.62;58.37;97760.53;10401078;28;20056;-70
2023/10/13 10:14:12;;;;;;;9.63;2.80;;;;;;;21.32;58.58;97747.00;10401525;28;20113;-70
2023/10/13 10:19:35;;;;;;;7.22;2.97;;;;;;;21.23;58.85;97741.75;10414588;28;20133;-70
2023/10/13 10:25:02;;;;;;;9.23;3.28;;;;;;;21.20;59.19;97728.94;10401159;28;20069;-71
2023/10/13 10:30:26;;;;;;;15.32;3.10;;;;;;;21.13;58.85;97737.31;10387838;28;20121;-70
2023/10/13 10:35:58;;;;;;;8.75;2.83;;;;;;;21.32;58.64;97729.25;10386558;28;20141;-71
2023/10/13 10:47:10;;;;;;;14.32;3.65;;;;;;;21.75;57.15;97725.34;10402924;28;20069;-71
2023/10/13 10:52:36;;;;;;;11.10;2.78;;;;;;;21.90;56.27;97712.88;10386374;28;20133;-70
2023/10/13 10:58:01;;;;;;;7.70;2.72;;;;;;;22.59;55.15;97716.50;10400517;28;20064;-70
2023/10/13 11:03:22;;;;;;;7.88;2.47;;;;;;;22.99;53.97;97695.94;10414777;28;20128;-71
2023/10/13 11:08:50;;;;;;;10.27;2.55;;;;;;;23.06;52.76;97695.34;10414295;28;20068;-70
2023/10/13 11:14:22;;;;;;;9.63;3.63;;;;;;;23.01;51.56;97682.47;10385580;28;20069;-71
2023/10/13 11:19:43;;;;;;;9.27;2.90;;;;;;;22.74;51.83;97674.81;10414353;28;20116;-71
2023/10/13 11:25:14;;;;;;;13.27;3.03;;;;;;;22.62;51.98;97683.13;10414172;28;20282;-71
2023/10/13 11:36:03;;;;;;;10.23;2.90;;;;;;;23.24;50.26;97674.28;10399621;28;20547;-70
2023/10/13 11:41:23;;;;;;;16.27;3.40;;;;;;;24.11;49.04;97661.34;10387260;28;20124;-71
2023/10/13 11:52:15;;;;;;;10.25;2.90;;;;;;;24.31;44.82;97620.97;10420922;28;20160;-70
2023/10/13 11:57:37;;;;;;;7.50;2.63;;;;;;;24.47;43.84;97629.00;10394285;28;20121;-71
2023/10/13 12:08:49;;;;;;;11.13;2.83;;;;;;;24.37;42.69;97611.78;10408165;28;20105;-70
2023/10/13 12:14:29;;;;;;;10.35;2.53;;;;;;;24.16;42.70;97602.97;10419956;28;20042;-70
2023/10/13 12:19:54;;;;;;;12.60;2.63;;;;;;;24.21;42.74;97600.88;10404878;28;20088;-70
2023/10/13 12:30:57;;;;;;;10.95;2.30;;;;;;;25.27;41.57;97587.63;10396318;28;20160;-71
2023/10/13 12:53:01;;;;;;;8.73;2.78;;;;;;;25.70;38.36;97562.94;10418199;28;20048;-70
2023/10/13 12:58:26;;;;;;;7.68;2.28;;;;;;;25.68;38.67;97557.19;10417326;28;20076;-71
2023/10/13 13:03:55;;;;;;;13.30;2.72;;;;;;;25.89;38.54;97550.16;10403266;28;20518;-71
2023/10/13 13:09:25;;;;;;;7.45;2.15;;;;;;;26.12;37.83;97542.34;10417026;28;20045;-71
2023/10/13 13:14:46;;;;;;;9.43;2.38;;;;;;;26.76;37.02;97532.47;10391864;28;20069;-71
2023/10/13 13:20:11;;;;;;;9.85;2.60;;;;;;;27.17;34.37;97529.59;10417514;28;20475;-71
2023/10/13 13:25:38;;;;;;;10.20;2.50;;;;;;;27.49;34.06;97522.34;10416331;28;20060;-71
2023/10/13 13:30:58;;;;;;;8.00;2.65;;;;;;;27.06;33.85;97517.44;10389850;28;20499;-71
2023/10/13 13:36:19;;;;;;;7.00;2.35;;;;;;;26.44;34.41;97518.88;10387985;28;20038;-71
2023/10/13 13:41:42;;;;;;;5.43;2.28;;;;;;;26.44;34.62;97498.84;10388122;28;20042;-69
2023/10/13 13:47:11;;;;;;;10.80;2.97;;;;;;;26.35;33.81;97491.66;10415587;28;20046;-71
2023/10/13 13:52:33;;;;;;;10.10;2.60;;;;;;;26.38;32.68;97484.50;10402758;28;20049;-71
2023/10/13 13:57:58;;;;;;;5.72;2.63;;;;;;;26.67;32.21;97470.22;10401144;28;20044;-70
2023/10/13 14:03:31;;;;;;;7.93;2.58;;;;;;;26.59;31.88;97461.63;10386744;28;20056;-71
2023/10/13 14:08:56;;;;;;;9.18;2.85;;;;;;;26.46;31.54;97450.19;10414897;28;20041;-71
2023/10/13 14:19:47;;;;;;;7.70;2.47;;;;;;;26.14;32.13;97439.38;10401867;28;20507;-71
2023/10/13 14:25:14;;;;;;;9.25;2.53;;;;;;;26.00;31.29;97438.66;10414886;28;20052;-71
2023/10/13 14:30:35;;;;;;;11.30;2.50;;;;;;;25.89;31.24;97426.50;10401297;28;20487;-71
2023/10/13 14:35:56;;;;;;;12.90;3.47;;;;;;;25.62;30.96;97419.97;10386746;28;20100;-70
2023/10/13 14:41:18;;;;;;;8.70;2.47;;;;;;;25.28;31.65;97415.53;10400192;28;20096;-71
2023/10/13 14:46:39;;;;;;;7.27;2.67;;;;;;;24.88;31.80;97424.59;10399933;28;20042;-71
2023/10/13 14:52:02;;;;;;;13.07;2.63;;;;;;;24.63;32.53;97417.31;10400099;28;20042;-70
2023/10/13 14:57:25;;;;;;;6.88;2.92;;;;;;;24.50;32.80;97416.50;10386253;28;20526;-71
2023/10/13 15:02:46;;;;;;;8.85;2.47;;;;;;;24.18;32.59;97403.38;10413425;28;20041;-70
2023/10/13 15:08:07;;;;;;;9.05;2.58;;;;;;;23.96;32.69;97408.91;10414697;28;20045;-71
2023/10/13 15:13:28;;;;;;;12.23;2.63;;;;;;;23.83;32.77;97393.09;10399831;28;20045;-70
2023/10/13 15:18:51;;;;;;;11.23;2.50;;;;;;;23.67;33.11;97402.19;10406136;28;20095;-71
2023/10/13 15:24:16;;;;;;;7.82;2.60;;;;;;;23.52;32.86;97392.03;10407251;28;20152;-71
2023/10/13 15:29:50;;;;;;;11.02;2.78;;;;;;;23.32;33.16;97392.50;10421858;28;20472;-70
2023/10/13 15:35:12;;;;;;;8.98;2.35;;;;;;;23.09;33.78;97397.94;10406773;28;20069;-70
2023/10/13 15:40:33;;;;;;;13.60;2.33;;;;;;;22.87;33.72;97394.78;10406946;28;20073;-71
2023/10/13 15:45:57;;;;;;;10.13;2.60;;;;;;;22.64;34.42;97401.56;10392697;28;20112;-71
2023/10/13 15:51:19;;;;;;;12.40;2.30;;;;;;;22.43;34.40;97398.41;10406641;28;20125;-70
2023/10/13 15:56:39;;;;;;;10.65;2.42;;;;;;;22.23;35.09;97401.66;10406134;28;20096;-70
2023/10/13 16:02:00;;;;;;;7.10;2.47;;;;;;;22.03;35.13;97389.22;10419696;28;20125;-71
2023/10/13 16:07:22;;;;;;;8.80;2.80;;;;;;;21.86;35.24;97388.91;10405222;28;20530;-71
2023/10/13 16:12:44;;;;;;;7.57;2.30;;;;;;;21.64;36.00;97386.41;10405070;28;20072;-70
2023/10/13 16:18:06;;;;;;;10.43;3.13;;;;;;;21.46;36.24;97388.19;10419754;28;20165;-70
2023/10/13 16:23:27;;;;;;;9.43;2.83;;;;;;;21.22;36.67;97394.06;10405147;28;20038;-71
2023/10/13 16:28:53;;;;;;;10.88;2.60;;;;;;;20.89;37.25;97381.31;10404386;28;20072;-70
2023/10/13 16:34:18;;;;;;;10.75;2.67;;;;;;;20.70;37.73;97372.41;10405262;28;20185;-71
2023/10/13 16:39:39;;;;;;;12.77;3.00;;;;;;;20.53;37.82;97382.69;10390897;28;20369;-71
2023/10/13 16:45:19;;;;;;;14.55;3.28;;;;;;;20.47;38.54;97374.06;10404221;28;20518;-70
2023/10/13 16:50:41;;;;;;;5.97;2.38;;;;;;;20.42;38.71;97366.81;10418601;28;20125;-70
2023/10/13 16:56:02;;;;;;;10.07;2.78;;;;;;;20.38;38.91;97366.00;10403915;28;20117;-70
2023/10/13 17:01:23;;;;;;;9.23;3.08;;;;;;;20.28;39.14;97375.72;10403644;28;20192;-70
2023/10/13 17:06:44;;;;;;;5.40;2.70;;;;;;;20.11;39.15;97373.16;10389694;28;20088;-70
2023/10/13 17:12:05;;;;;;;8.45;2.22;;;;;;;19.90;39.41;97375.50;10418185;28;20077;-70
2023/10/13 17:17:26;;;;;;;10.82;2.97;;;;;;;19.67;39.84;97368.53;10403039;28;20045;-71
2023/10/13 17:22:47;;;;;;;5.78;3.03;;;;;;;19.51;40.06;97361.72;10403000;28;20113;-71
2023/10/13 17:28:14;;;;;;;9.77;3.63;;;;;;;19.45;40.58;97365.09;10402534;28;20471;-70
2023/10/13 17:33:40;;;;;;;11.18;4.05;;;;;;;19.42;40.92;97357.94;10417205;28;20049;-70
2023/10/13 17:39:03;;;;;;;9.68;3.97;;;;;;;19.40;41.08;97352.22;10402511;28;20053;-71
2023/10/13 17:44:24;;;;;;;10.25;3.40;;;;;;;19.39;40.77;97334.50;10402175;28;20125;-71
2023/10/13 17:49:45;;;;;;;10.25;3.58;;;;;;;19.43;41.48;97339.56;10402069;28;20506;-71
2023/10/13 17:55:06;;;;;;;8.18;4.05;;;;;;;19.48;41.25;97334.72;10387615;28;20071;-70
2023/10/13 18:00:27;;;;;;;16.75;5.45;;;;;;;19.54;41.07;97332.78;10401499;28;20057;-70
2023/10/13 18:05:48;;;;;;;12.02;4.95;;;;;;;19.58;40.96;97332.91;10415934;28;20081;-70
2023/10/13 18:11:12;;;;;;;11.23;3.95;;;;;;;19.59;40.83;97328.72;10387553;28;20045;-71
2023/10/13 18:16:34;;;;;;;8.80;2.65;;;;;;;19.63;41.34;97322.41;10415635;28;20065;-71
2023/10/13 18:21:58;;;;;;;11.87;2.67;;;;;;;19.66;40.87;97321.06;10400933;28;20054;-71
2023/10/13 18:27:19;;;;;;;9.23;2.80;;;;;;;19.66;41.17;97307.63;10401343;28;20049;-71
2023/10/13 18:32:41;;;;;;;9.88;2.83;;;;;;;19.62;41.17;97306.81;10400593;28;20068;-69
2023/10/13 18:38:04;;;;;;;8.25;2.70;;;;;;;19.45;41.06;97297.16;10414155;28;20069;-71
2023/10/13 18:43:25;;;;;;;7.47;3.08;;;;;;;19.38;41.48;97301.22;10387155;28;20088;-71
2023/10/13 18:48:45;;;;;;;9.60;3.63;;;;;;;19.30;41.39;97298.19;10400319;28;20125;-71
2023/10/13 18:54:07;;;;;;;13.40;3.80;;;;;;;19.18;41.50;97287.25;10422597;28;20042;-70
2023/10/13 18:59:28;;;;;;;9.93;3.13;;;;;;;19.08;41.37;97299.03;10423294;28;20446;-70
2023/10/13 19:04:49;;;;;;;12.55;3.40;;;;;;;19.01;41.88;97285.38;10422984;28;20127;-71
2023/10/13 19:10:16;;;;;;;11.07;3.72;;;;;;;19.03;41.54;97289.00;10408100;28;20498;-70
2023/10/13 19:15:36;;;;;;;10.20;3.35;;;;;;;19.05;41.69;97280.56;10395671;28;20065;-70
2023/10/13 19:20:57;;;;;;;10.48;3.08;;;;;;;19.02;41.61;97287.56;10394020;28;20486;-69
2023/10/13 19:26:24;;;;;;;9.57;3.25;;;;;;;19.00;41.92;97281.13;10422071;28;20172;-70
2023/10/13 19:31:45;;;;;;;10.88;3.25;;;;;;;19.02;41.96;97275.53;10407500;28;20038;-70
2023/10/13 19:37:05;;;;;;;8.80;2.90;;;;;;;18.98;41.73;97264.09;10420792;28;20081;-71
2023/10/13 19:42:26;;;;;;;9.20;3.10;;;;;;;18.93;41.92;97265.38;10406903;28;20518;-71
2023/10/13 19:47:47;;;;;;;7.40;3.40;;;;;;;18.86;42.35;97258.84;10406486;28;20077;-72
2023/10/13 19:53:11;;;;;;;9.00;3.10;;;;;;;18.81;42.47;97262.94;10406506;28;20053;-72
2023/10/13 19:58:32;;;;;;;14.02;3.42;;;;;;;18.73;42.78;97251.41;10406442;28;20449;-71
2023/10/13 20:03:54;;;;;;;12.43;3.22;;;;;;;18.67;43.17;97245.59;10404919;28;20488;-70
2023/10/13 20:09:24;;;;;;;9.53;3.00;;;;;;;18.54;43.17;97242.41;10420714;28;20049;-71
2023/10/13 20:14:46;;;;;;;12.95;3.10;;;;;;;18.50;43.52;97235.88;10420178;28;20121;-71
2023/10/13 20:20:07;;;;;;;12.70;2.97;;;;;;;18.44;43.54;97233.63;10420062;28;20050;-71
2023/10/13 20:25:28;;;;;;;8.65;2.97;;;;;;;18.42;43.85;97227.91;10391458;28;20455;-71
2023/10/13 20:30:48;;;;;;;10.50;2.83;;;;;;;18.32;43.90;97219.13;10391361;28;20506;-70
2023/10/13 20:36:10;;;;;;;7.68;3.03;;;;;;;18.26;44.01;97218.97;10404705;28;20073;-71
2023/10/13 20:41:31;;;;;;;8.20;2.72;;;;;;;18.16;44.26;97204.56;10404669;28;20068;-71
2023/10/13 20:46:52;;;;;;;10.63;3.40;;;;;;;18.05;44.25;97197.16;10419244;28;20081;-71
2023/10/13 20:52:15;;;;;;;11.70;3.13;;;;;;;17.96;44.51;97199.75;10404182;28;20180;-72
2023/10/13 20:57:37;;;;;;;9.80;2.80;;;;;;;17.90;44.71;97179.06;10418758;28;20120;-71
2023/10/13 21:02:58;;;;;;;13.15;2.65;;;;;;;17.84;44.58;97176.06;10418145;28;20076;-70
2023/10/13 21:08:24;;;;;;;6.80;2.45;;;;;;;17.71;44.98;97166.50;10390158;28;20050;-71
2023/10/13 21:13:45;;;;;;;6.97;2.67;;;;;;;17.63;45.07;97163.41;10390493;28;20072;-71
2023/10/13 21:19:06;;;;;;;5.72;2.60;;;;;;;17.60;45.28;97159.09;10402370;28;20073;-71
2023/10/13 21:24:27;;;;;;;10.40;2.60;;;;;;;17.56;45.45;97137.09;10402903;28;20116;-71
2023/10/13 21:29:48;;;;;;;7.05;2.63;;;;;;;17.61;45.33;97137.97;10402462;28;20458;-71
2023/10/13 21:35:09;;;;;;;8.27;2.97;;;;;;;17.62;45.40;97133.75;10401979;28;20072;-71
2023/10/13 21:40:30;;;;;;;7.22;2.35;;;;;;;17.67;45.36;97127.59;10388092;28;20065;-70
2023/10/13 21:45:51;;;;;;;7.80;2.60;;;;;;;17.74;45.44;97128.50;10402061;28;20069;-73
2023/10/13 21:51:15;;;;;;;6.68;2.25;;;;;;;17.68;45.17;97119.84;10388255;28;20117;-71
2023/10/13 21:56:38;;;;;;;9.10;2.20;;;;;;;17.73;45.10;97115.75;10415421;28;20117;-71
2023/10/13 22:01:59;;;;;;;;;;;;;;;17.79;44.76;97110.31;10416914;28;20077;-71
2023/10/13 22:07:21;;;;;;;7.35;2.33;;;;;;;17.77;45.10;97096.13;10452928;28;19920;-71
2023/10/13 22:12:46;;;;;;;8.38;2.85;;;;;;;17.83;44.58;97104.78;10442516;28;20090;-70
2023/10/13 22:18:07;;;;;;;10.40;2.65;;;;;;;17.85;44.51;97093.53;10428709;28;20460;-71
2023/10/13 22:23:28;;;;;;;12.32;2.70;;;;;;;17.82;44.45;97092.03;10456915;28;20071;-71
2023/10/13 22:28:49;;;;;;;10.18;2.80;;;;;;;17.81;44.28;97082.13;10427495;28;20047;-73
2023/10/13 22:34:12;;;;;;;8.18;2.35;;;;;;;17.73;44.30;97081.91;10441808;28;20116;-71
2023/10/13 22:39:33;;;;;;;12.00;2.45;;;;;;;17.68;44.86;97081.03;10441967;28;20124;-71
2023/10/13 22:44:54;;;;;;;7.40;2.70;;;;;;;17.61;45.11;97062.50;10441549;28;20586;-72
2023/10/13 22:50:18;;;;;;;9.55;1.90;;;;;;;17.59;44.52;97064.53;10456439;28;20510;-71
2023/10/13 22:55:43;;;;;;;11.48;2.50;;;;;;;17.51;44.64;97044.53;10441638;28;20134;-71
2023/10/13 23:01:04;;;;;;;11.15;2.50;;;;;;;17.50;44.70;97041.00;10455222;28;20444;-71
2023/10/13 23:06:30;;;;;;;10.40;2.40;;;;;;;17.45;44.58;97036.59;10440860;28;20142;-72
2023/10/13 23:11:56;;;;;;;8.98;2.55;;;;;;;17.40;44.86;97037.88;10441849;28;20095;-71
2023/10/13 23:17:20;;;;;;;13.27;2.70;;;;;;;17.36;44.67;97027.19;10440970;28;20120;-71
2023/10/13 23:22:41;;;;;;;16.05;2.53;;;;;;;17.29;44.84;97025.59;10455635;28;20159;-71
2023/10/13 23:28:02;;;;;;;7.35;2.45;;;;;;;17.24;44.79;97026.81;10440795;28;20100;-71
2023/10/13 23:33:24;;;;;;;9.52;2.10;;;;;;;17.23;44.69;97021.84;10454676;28;20065;-72
2023/10/13 23:38:52;;;;;;;14.68;3.30;;;;;;;17.19;44.80;97013.28;10460189;28;20404;-72
2023/10/13 23:44:13;;;;;;;5.55;2.03;;;;;;;17.07;44.83;97010.78;10449194;28;20108;-71
2023/10/13 23:49:34;;;;;;;11.13;2.13;;;;;;;17.00;44.93;96995.81;10461724;28;20120;-71
2023/10/13 23:54:56;;;;;;;8.05;2.20;;;;;;;17.04;44.66;96992.38;10447652;28;20072;-71
